SAMR/AFA METAR and TAF weather

Enter ICAO airport designator
Station Type Date Time Source
SAMR METAR 2019/09/23 19:00 UTC NOAA

SAMR 231900Z 00000KT 5000 FU NSC 25/01 Q1019


Station Type Date Time Source
SAMR Decoded METAR 2019/09/23 19:00 UTC NOAA

San Rafael Aerodrome, Argentina (SAMR) 34-35S 068-24W 748M
Sep 23, 2019 - 03:00 PM EDT / 2019.09.23 1900 UTC
Wind: Calm:0
Visibility: 3 mile(s):0
Weather: smoke
Temperature: 77 F (25 C)
Dew Point: 33 F (1 C)
Relative Humidity: 20%
Pressure (altimeter): 30.09 in. Hg (1019 hPa)
ob: SAMR 231900Z 00000KT 5000 FU NSC 25/01 Q1019
cycle: 19

Station Type Date Time Source
SAMR TAF 2019/08/18 18:03 UTC NOAA

TAF SAMR 181700Z 1818/1918 16010KT 9999 OVC030 SCT070 TX12/1819Z TN01/1911Z

Example: see airport list